Time;durP1;ratioP1;P1;durP2;ratioP2;P2;SDS_P1;SDS_P2;PMS_P1;PMS_P2;Temp;Humidity;BMP_temperature;BMP_pressure;BME280_temperature;BME280_humidity;BME280_pressure;Samples;Min_cycle;Max_cycle;Signal;HPM_P1;HPM_P2
2023/09/24 00:02:12;;;;;;;;;25.67;23.00;;;;;15.09;64.72;101960.34;5077622;28;46063;-47
2023/09/24 00:04:38;;;;;;;;;27.00;24.67;;;;;15.08;64.87;101965.84;5077502;28;45409;-50
2023/09/24 00:07:03;;;;;;;;;24.00;21.33;;;;;15.05;65.08;101969.69;5077359;28;45253;-46
2023/09/24 00:09:29;;;;;;;;;23.67;22.67;;;;;14.95;65.44;101958.97;5077634;28;45244;-44
2023/09/24 00:11:54;;;;;;;;;22.00;18.67;;;;;14.98;65.58;101973.91;5076976;28;46481;-41
2023/09/24 00:14:20;;;;;;;;;24.00;19.33;;;;;14.78;65.68;101938.28;5077051;28;45456;-45
2023/09/24 00:16:45;;;;;;;;;27.00;21.67;;;;;14.93;65.68;101960.13;5077154;28;45754;-42
2023/09/24 00:19:11;;;;;;;;;25.33;17.33;;;;;14.94;65.71;101965.31;5076417;28;45362;-48
2023/09/24 00:21:36;;;;;;;;;23.00;19.00;;;;;14.92;65.55;101969.16;5077094;28;46352;-44
2023/09/24 00:24:03;;;;;;;;;22.67;17.67;;;;;14.90;65.39;101963.09;5077068;28;45346;-48
2023/09/24 00:26:29;;;;;;;;;21.00;18.00;;;;;14.87;65.69;101971.41;5077134;28;45433;-44
2023/09/24 00:28:54;;;;;;;;;19.00;17.00;;;;;14.81;65.82;101967.47;5077257;28;45496;-44
2023/09/24 00:31:21;;;;;;;;;17.33;14.67;;;;;14.80;65.39;101970.31;5076813;28;45451;-42
2023/09/24 00:33:46;;;;;;;;;18.00;16.00;;;;;14.77;65.85;101975.94;5076909;28;45483;-41
2023/09/24 00:36:12;;;;;;;;;20.67;17.00;;;;;14.74;65.81;101969.03;5076676;28;45307;-41
2023/09/24 00:38:38;;;;;;;;;27.00;18.00;;;;;14.75;66.08;101977.91;5077063;28;45407;-43
2023/09/24 00:41:03;;;;;;;;;20.00;17.00;;;;;14.68;66.11;101965.09;5058247;28;48356;-41
2023/09/24 00:43:33;;;;;;;;;19.33;16.67;;;;;14.66;65.99;101985.84;5075890;28;45389;-41
2023/09/24 00:46:03;;;;;;;;;18.33;18.33;;;;;14.53;66.15;101963.00;5077076;28;45354;-40
2023/09/24 00:48:30;;;;;;;;;19.67;15.00;;;;;14.60;66.70;101988.25;5076090;28;45555;-42
2023/09/24 00:51:22;;;;;;;;;11.33;10.00;;;;;14.60;66.13;101991.75;5076363;28;46839;-40
2023/09/24 00:53:52;;;;;;;;;27.00;20.00;;;;;14.57;66.64;101985.84;5075743;28;45461;-43
2023/09/24 00:56:17;;;;;;;;;16.67;16.67;;;;;14.48;66.88;101979.47;5076579;28;45556;-44
2023/09/24 00:58:47;;;;;;;;;23.67;17.00;;;;;14.54;66.77;101992.34;5076559;28;45327;-41
2023/09/24 01:01:13;;;;;;;;;21.67;18.33;;;;;14.40;66.82;101973.97;5076263;28;47274;-42
2023/09/24 01:03:40;;;;;;;;;25.67;24.00;;;;;14.49;66.94;101991.91;5076608;28;45333;-42
2023/09/24 01:06:06;;;;;;;;;4.00;4.00;;;;;14.32;66.67;101965.81;5076463;28;45403;-41
2023/09/24 01:08:33;;;;;;;;;26.00;19.00;;;;;14.47;67.10;101989.34;5076638;28;45279;-44
2023/09/24 01:10:58;;;;;;;;;18.00;18.00;;;;;14.42;66.87;101985.41;5076018;28;45275;-43
2023/09/24 01:13:24;;;;;;;;;22.67;18.67;;;;;14.39;67.01;101988.34;5076266;28;45250;-42
2023/09/24 01:15:50;;;;;;;;;18.67;17.33;;;;;14.32;67.42;101988.06;5076344;28;45338;-43
2023/09/24 01:18:18;;;;;;;;;23.00;20.00;;;;;14.28;67.44;101993.84;5076534;28;45485;-45
2023/09/24 01:20:44;;;;;;;;;21.00;18.00;;;;;14.21;67.69;101986.38;5075874;28;46287;-46
2023/09/24 01:23:10;;;;;;;;;23.67;16.67;;;;;14.19;67.53;101991.03;5074704;28;45437;-40
2023/09/24 01:25:36;;;;;;;;;20.67;16.67;;;;;14.19;67.56;101984.81;5058084;28;45429;-47
2023/09/24 01:28:06;;;;;;;;;18.67;14.67;;;;;14.17;67.57;101989.50;5076393;28;45288;-49
2023/09/24 01:30:32;;;;;;;;;22.67;20.00;;;;;14.16;67.81;101990.47;5077078;28;46563;-44
2023/09/24 01:32:58;;;;;;;;;23.00;19.67;;;;;14.11;67.64;101990.03;5079424;28;45319;-41
2023/09/24 01:35:28;;;;;;;;;20.33;16.33;;;;;14.09;67.81;101994.69;5060909;28;45417;-43
2023/09/24 01:37:59;;;;;;;;;19.33;16.00;;;;;14.05;67.74;102007.50;5079801;28;45401;-46
2023/09/24 01:40:32;;;;;;;;;18.67;17.33;;;;;14.01;68.13;102006.06;5079377;28;46367;-41
2023/09/24 01:42:58;;;;;;;;;20.33;16.00;;;;;14.01;67.97;102005.22;5079550;28;45629;-42
2023/09/24 01:45:25;;;;;;;;;16.00;16.00;;;;;13.98;68.24;102001.00;5079846;28;45502;-43
2023/09/24 01:47:51;;;;;;;;;19.00;15.00;;;;;13.96;68.43;102009.16;5079690;28;45528;-46
2023/09/24 01:50:16;;;;;;;;;17.67;14.00;;;;;13.96;67.88;102005.66;5079514;28;46903;-41
2023/09/24 01:52:43;;;;;;;;;18.00;15.00;;;;;13.93;68.10;101995.22;5079672;28;45231;-42
2023/09/24 01:55:08;;;;;;;;;19.33;16.67;;;;;13.93;68.08;101992.53;5079509;28;45308;-40
2023/09/24 01:57:34;;;;;;;;;17.33;14.00;;;;;13.90;68.63;102000.84;5079620;28;45488;-41
2023/09/24 02:00:23;;;;;;;;;16.33;14.00;;;;;13.83;68.13;101999.72;5079446;28;45467;-43
2023/09/24 02:02:45;;;;;;;;;17.33;14.00;;;;;13.79;68.54;102006.31;5079092;28;45365;-45
2023/09/24 02:05:11;;;;;;;;;16.00;11.67;;;;;13.77;68.47;102002.91;5079615;28;45465;-41
2023/09/24 02:07:40;;;;;;;;;17.00;14.00;;;;;13.79;68.21;102006.31;5079111;28;45447;-40
2023/09/24 02:10:06;;;;;;;;;22.00;16.33;;;;;13.76;67.98;102006.59;5079336;28;47090;-41
2023/09/24 02:12:38;;;;;;;;;21.67;16.67;;;;;13.73;68.23;102005.84;5079276;28;45594;-43
2023/09/24 02:15:11;;;;;;;;;20.67;15.00;;;;;13.69;68.45;102007.16;5079446;28;45712;-42
2023/09/24 02:17:41;;;;;;;;;18.00;15.67;;;;;13.64;68.53;102009.34;5078476;28;45617;-40
2023/09/24 02:20:31;;;;;;;;;13.33;12.00;;;;;13.60;68.54;102007.94;5078920;28;47168;-45
2023/09/24 02:23:02;;;;;;;;;14.00;10.67;;;;;13.56;68.46;102011.84;5079042;28;45414;-43
2023/09/24 02:25:32;;;;;;;;;16.33;15.33;;;;;13.53;68.28;102016.66;5079135;28;45288;-42
2023/09/24 02:27:59;;;;;;;;;16.67;16.67;;;;;13.51;68.84;102008.75;5061033;28;45594;-40
2023/09/24 02:30:29;;;;;;;;;14.67;13.00;;;;;13.53;68.56;102016.66;5078787;28;46448;-48
2023/09/24 02:33:01;;;;;;;;;15.00;13.33;;;;;13.50;68.53;102014.25;5061098;28;45426;-42
2023/09/24 02:35:27;;;;;;;;;20.00;15.00;;;;;13.48;69.36;102007.22;5078396;28;45301;-43
2023/09/24 02:37:53;;;;;;;;;18.67;14.00;;;;;13.47;69.01;102008.16;5079003;28;45437;-46
2023/09/24 02:40:27;;;;;;;;;15.00;11.33;;;;;13.47;69.34;102015.34;5060952;28;46324;-41
2023/09/24 02:42:57;;;;;;;;;19.00;12.33;;;;;13.35;69.56;102000.38;5077534;28;45461;-44
2023/09/24 02:45:24;;;;;;;;;13.33;8.00;;;;;13.40;69.21;102003.50;5078794;28;45466;-43
2023/09/24 02:47:50;;;;;;;;;14.67;14.00;;;;;13.36;69.68;102010.94;5078865;28;45472;-43
2023/09/24 02:50:24;;;;;;;;;13.67;13.00;;;;;13.29;69.37;102001.78;5078522;28;46284;-42
2023/09/24 02:52:58;;;;;;;;;15.33;14.00;;;;;13.32;69.38;101998.84;5078386;28;45472;-41
2023/09/24 02:55:25;;;;;;;;;10.67;10.67;;;;;13.36;70.27;102002.94;5078507;28;45312;-47
2023/09/24 02:57:50;;;;;;;;;14.33;11.33;;;;;13.28;69.79;102009.94;5078439;28;45521;-41
2023/09/24 03:00:26;;;;;;;;;15.00;11.67;;;;;13.28;69.78;102008.09;5078403;28;46243;-45
2023/09/24 03:02:57;;;;;;;;;14.33;12.33;;;;;13.27;69.84;102000.19;5078483;28;45367;-43
2023/09/24 03:05:24;;;;;;;;;14.67;13.00;;;;;13.35;69.71;102019.94;5077289;28;45390;-41
2023/09/24 03:07:53;;;;;;;;;15.00;11.00;;;;;13.34;69.73;102006.72;5078661;28;45375;-46
2023/09/24 03:10:20;;;;;;;;;12.33;12.00;;;;;13.29;69.31;102008.94;5078334;28;45261;-44
2023/09/24 03:12:46;;;;;;;;;14.00;10.67;;;;;13.30;69.48;102015.97;5077595;28;45318;-48
2023/09/24 03:15:12;;;;;;;;;15.00;13.00;;;;;13.32;69.30;102019.38;5078480;28;45418;-50
2023/09/24 03:17:43;;;;;;;;;14.00;12.33;;;;;13.28;69.41;102020.63;5078350;28;45371;-41
2023/09/24 03:20:15;;;;;;;;;12.67;11.33;;;;;13.25;69.31;102024.41;5077943;28;46149;-44
2023/09/24 03:22:51;;;;;;;;;20.00;14.33;;;;;13.26;69.13;102019.88;5078072;28;45345;-42
2023/09/24 03:25:22;;;;;;;;;13.33;11.67;;;;;13.25;69.11;102028.91;5078085;28;45490;-45
2023/09/24 03:27:49;;;;;;;;;15.67;12.00;;;;;13.20;69.09;102019.41;5078314;28;45419;-43
2023/09/24 03:30:17;;;;;;;;;16.67;11.00;;;;;13.18;69.75;102026.69;5078602;28;46409;-43
2023/09/24 03:32:43;;;;;;;;;18.00;15.67;;;;;13.15;69.57;102027.00;5078294;28;45210;-45
2023/09/24 03:35:10;;;;;;;;;13.33;12.33;;;;;13.15;69.17;102032.34;5078286;28;45285;-43
2023/09/24 03:37:37;;;;;;;;;15.67;14.00;;;;;13.10;69.82;102023.00;5078131;28;45451;-41
2023/09/24 03:40:06;;;;;;;;;10.00;10.00;;;;;13.11;69.37;102027.38;5076967;28;45352;-45
2023/09/24 03:42:32;;;;;;;;;13.00;11.00;;;;;13.06;69.78;102026.91;5076945;28;45369;-42
2023/09/24 03:44:57;;;;;;;;;18.00;14.33;;;;;13.06;69.74;102030.47;5078167;28;45421;-47
2023/09/24 03:47:22;;;;;;;;;16.33;14.00;;;;;13.02;69.56;102022.81;5078087;28;45491;-46
2023/09/24 03:49:48;;;;;;;;;20.00;12.67;;;;;12.97;69.74;102028.53;5077715;28;46107;-40
2023/09/24 03:52:13;;;;;;;;;18.33;14.33;;;;;12.95;69.98;102033.19;5077610;28;45339;-41
2023/09/24 03:54:38;;;;;;;;;11.33;11.00;;;;;12.90;70.24;102028.25;5077879;28;45359;-41
2023/09/24 03:57:05;;;;;;;;;13.00;11.00;;;;;12.85;69.76;102018.91;5077914;28;45212;-45
2023/09/24 03:59:34;;;;;;;;;17.33;13.00;;;;;12.84;70.29;102022.56;5077361;28;46151;-43
2023/09/24 04:02:00;;;;;;;;;15.33;11.33;;;;;12.81;70.18;102026.34;5077746;28;45355;-46
2023/09/24 04:04:26;;;;;;;;;13.33;13.33;;;;;12.78;70.07;102031.09;5077658;28;45751;-42
2023/09/24 04:06:51;;;;;;;;;15.33;13.33;;;;;12.75;70.90;102037.53;5077665;28;45425;-47
2023/09/24 04:09:17;;;;;;;;;10.00;8.67;;;;;12.67;70.61;102032.00;5077509;28;46196;-45
2023/09/24 04:11:42;;;;;;;;;15.33;12.00;;;;;12.65;70.44;102048.16;5077392;28;46708;-51
2023/09/24 04:14:08;;;;;;;;;15.33;14.00;;;;;12.67;70.04;102048.00;5077506;28;45352;-40
2023/09/24 04:16:34;;;;;;;;;12.33;9.00;;;;;12.66;70.78;102043.66;5077587;28;45347;-41
2023/09/24 04:18:59;;;;;;;;;12.33;10.33;;;;;12.47;70.36;102026.53;5077153;28;45488;-40
2023/09/24 04:21:25;;;;;;;;;13.00;10.67;;;;;12.58;71.07;102041.63;5076583;28;45729;-42
2023/09/24 04:23:51;;;;;;;;;16.00;9.00;;;;;12.58;70.66;102040.78;5077380;28;45376;-46
2023/09/24 04:26:22;;;;;;;;;12.00;10.00;;;;;12.55;70.53;102046.38;5077510;28;45417;-50
2023/09/24 04:28:54;;;;;;;;;16.33;11.00;;;;;12.50;70.93;102028.06;5076935;28;46291;-44
2023/09/24 04:31:20;;;;;;;;;14.00;10.00;;;;;12.51;70.71;102043.09;5076818;28;45389;-43
2023/09/24 04:33:45;;;;;;;;;15.00;13.33;;;;;12.52;71.13;102042.16;5077305;28;45476;-41
2023/09/24 04:36:11;;;;;;;;;14.00;9.00;;;;;12.51;71.01;102043.09;5076870;28;45509;-42
2023/09/24 04:38:37;;;;;;;;;13.00;10.00;;;;;12.49;71.22;102039.72;5076978;28;45341;-48
2023/09/24 04:41:03;;;;;;;;;9.33;8.00;;;;;12.49;71.62;102029.06;5076999;28;45351;-40
2023/09/24 04:43:29;;;;;;;;;14.67;13.67;;;;;12.55;71.60;102031.19;5077119;28;45255;-41
2023/09/24 04:45:54;;;;;;;;;15.67;11.00;;;;;12.56;71.47;102032.06;5077146;28;45321;-41
2023/09/24 04:48:20;;;;;;;;;15.00;12.67;;;;;12.54;71.02;102029.50;5076796;28;45398;-42
2023/09/24 04:50:45;;;;;;;;;17.00;11.00;;;;;12.52;72.02;102035.97;5076697;28;45435;-43
2023/09/24 04:53:10;;;;;;;;;12.00;11.00;;;;;12.49;72.16;102039.72;5076834;28;45355;-41
2023/09/24 04:55:36;;;;;;;;;16.67;11.67;;;;;12.47;71.63;102036.31;5076027;28;45494;-41
2023/09/24 04:58:01;;;;;;;;;12.33;12.00;;;;;12.47;72.27;102039.00;5076449;28;46158;-42
2023/09/24 05:00:26;;;;;;;;;6.33;3.00;;;;;12.49;71.53;102037.06;5077002;28;45380;-45
2023/09/24 05:02:52;;;;;;;;;15.00;11.00;;;;;12.48;71.92;102038.88;5076498;28;45331;-43
2023/09/24 05:05:17;;;;;;;;;13.67;7.00;;;;;12.46;71.99;102035.47;5076344;28;45281;-44
2023/09/24 05:07:43;;;;;;;;;13.33;9.67;;;;;12.47;71.71;102039.88;5076569;28;45426;-42
2023/09/24 05:10:10;;;;;;;;;12.00;8.33;;;;;12.47;72.07;102033.66;5076556;28;45331;-42
2023/09/24 05:12:35;;;;;;;;;9.33;8.00;;;;;12.47;71.66;102033.66;5076621;28;45404;-40
2023/09/24 05:15:01;;;;;;;;;4.33;1.00;;;;;12.44;71.55;102025.91;5076641;28;45691;-41
2023/09/24 05:17:27;;;;;;;;;25.00;19.67;;;;;12.47;71.59;102039.00;5076375;28;46104;-38
2023/09/24 05:19:52;;;;;;;;;18.67;13.33;;;;;12.46;72.02;102037.31;5076362;28;45855;-43
2023/09/24 05:22:18;;;;;;;;;13.67;11.33;;;;;12.44;71.95;102039.25;5076563;28;45400;-40
2023/09/24 05:24:43;;;;;;;;;12.00;11.00;;;;;12.33;71.54;102023.28;5058474;28;45316;-41
2023/09/24 05:27:09;;;;;;;;;14.00;10.00;;;;;12.40;72.12;102041.34;5075997;28;46496;-45
2023/09/24 05:29:35;;;;;;;;;8.00;8.00;;;;;12.34;72.04;102040.97;5076152;28;45468;-39
2023/09/24 05:32:02;;;;;;;;;12.33;11.33;;;;;12.18;71.83;102012.91;5076401;28;45212;-42
2023/09/24 05:34:28;;;;;;;;;12.67;9.33;;;;;12.34;71.82;102032.97;5076594;28;45466;-41
2023/09/24 05:36:53;;;;;;;;;14.33;9.00;;;;;12.36;71.82;102041.72;5075712;28;47395;-41
2023/09/24 05:39:18;;;;;;;;;12.00;9.33;;;;;12.34;71.89;102049.00;5076065;28;45436;-40
2023/09/24 05:41:44;;;;;;;;;11.00;11.00;;;;;12.30;71.71;102045.72;5076164;28;45429;-47
2023/09/24 05:44:09;;;;;;;;;17.00;12.67;;;;;12.29;71.56;102046.69;5075759;28;45406;-47
2023/09/24 05:46:35;;;;;;;;;9.67;8.00;;;;;12.28;71.81;102050.34;5076356;28;45400;-40
2023/09/24 05:49:00;;;;;;;;;17.33;11.33;;;;;12.27;71.75;102053.16;5076188;28;45434;-40
2023/09/24 05:51:26;;;;;;;;;19.33;13.00;;;;;12.21;72.10;102052.66;5075735;28;45465;-45
2023/09/24 05:53:52;;;;;;;;;13.00;12.00;;;;;12.18;72.14;102055.59;5076252;28;45363;-41
2023/09/24 05:56:18;;;;;;;;;12.67;11.67;;;;;11.99;71.77;102032.22;5076015;28;45228;-41
2023/09/24 05:58:44;;;;;;;;;12.67;10.00;;;;;12.15;72.22;102061.19;5075735;28;45656;-41
2023/09/24 06:01:16;;;;;;;;;8.33;7.67;;;;;12.11;71.85;102070.41;5075819;28;45483;-51
2023/09/24 06:03:42;;;;;;;;;8.33;8.33;;;;;11.96;72.13;102044.97;5076031;28;45479;-48
2023/09/24 06:06:12;;;;;;;;;10.00;9.33;;;;;12.16;71.89;102072.69;5075653;28;46243;-48
2023/09/24 06:08:37;;;;;;;;;12.67;12.00;;;;;12.18;71.83;102068.09;5075806;28;45407;-40
2023/09/24 06:11:03;;;;;;;;;15.00;10.67;;;;;12.13;71.67;102051.59;5075883;28;45378;-45
2023/09/24 06:13:29;;;;;;;;;13.00;10.33;;;;;12.18;71.67;102076.09;5075991;28;45506;-43
2023/09/24 06:16:02;;;;;;;;;9.00;9.00;;;;;12.18;72.48;102070.75;5075574;28;46319;-40
2023/09/24 06:18:28;;;;;;;;;12.00;10.33;;;;;12.13;72.21;102076.44;5078312;28;45421;-43
2023/09/24 06:20:53;;;;;;;;;12.33;9.67;;;;;12.13;72.33;102070.25;5079551;28;45407;-40
2023/09/24 06:23:19;;;;;;;;;12.00;11.00;;;;;12.15;72.55;102073.66;5079279;28;45521;-39
2023/09/24 06:25:44;;;;;;;;;12.33;10.67;;;;;12.16;72.07;102083.34;5078934;28;45460;-40
2023/09/24 06:28:10;;;;;;;;;10.67;9.33;;;;;12.20;72.85;102084.81;5079137;28;45389;-39
2023/09/24 06:30:41;;;;;;;;;8.33;8.00;;;;;12.18;72.66;102102.78;5079284;28;45375;-44
2023/09/24 06:33:07;;;;;;;;;10.00;9.33;;;;;12.13;72.87;102089.78;5079190;28;45542;-40
2023/09/24 06:35:35;;;;;;;;;12.67;10.33;;;;;12.19;72.90;102101.78;5078539;28;46214;-39
2023/09/24 06:38:01;;;;;;;;;10.00;10.00;;;;;12.16;72.51;102088.69;5060499;28;45411;-42
2023/09/24 06:40:26;;;;;;;;;9.67;7.33;;;;;12.22;72.38;102101.56;5078982;28;45670;-46
2023/09/24 06:42:52;;;;;;;;;13.33;12.33;;;;;12.08;72.00;102075.13;5079036;28;45446;-45
2023/09/24 06:45:17;;;;;;;;;14.00;11.67;;;;;12.27;71.85;102101.19;5060468;28;46089;-44
2023/09/24 06:47:42;;;;;;;;;14.00;10.00;;;;;12.28;71.65;102100.19;5078700;28;45395;-41
2023/09/24 06:50:08;;;;;;;;;10.67;8.00;;;;;12.27;72.16;102088.69;5078961;28;45312;-46
2023/09/24 06:52:34;;;;;;;;;13.33;11.67;;;;;12.21;71.72;102082.00;5079096;28;45598;-45
2023/09/24 06:54:59;;;;;;;;;9.00;9.00;;;;;12.27;71.85;102090.50;5078577;28;45966;-45
2023/09/24 06:57:25;;;;;;;;;11.33;11.00;;;;;12.35;72.18;102093.41;5078743;28;45502;-41
2023/09/24 06:59:50;;;;;;;;;8.33;7.33;;;;;12.32;71.86;102098.97;5077590;28;45403;-46
2023/09/24 07:02:16;;;;;;;;;9.00;7.33;;;;;12.36;71.94;102103.94;5079348;28;45433;-49
2023/09/24 07:04:42;;;;;;;;;16.00;10.00;;;;;12.40;71.70;102104.53;5078986;28;46975;-49
2023/09/24 07:07:10;;;;;;;;;8.00;7.00;;;;;12.43;71.75;102106.94;5061627;28;45423;-46
2023/09/24 07:09:36;;;;;;;;;12.33;12.00;;;;;12.47;71.89;102103.03;5078828;28;45412;-47
2023/09/24 07:12:01;;;;;;;;;12.67;10.00;;;;;12.54;72.25;102106.06;5078342;28;45420;-48
2023/09/24 07:14:27;;;;;;;;;13.00;10.00;;;;;12.51;72.01;102092.97;5078105;28;46887;-47
2023/09/24 07:16:52;;;;;;;;;13.67;9.67;;;;;12.46;71.43;102085.34;5078089;28;45409;-44
2023/09/24 07:19:18;;;;;;;;;10.33;7.33;;;;;12.59;71.73;102091.34;5078596;28;45409;-47
2023/09/24 07:21:44;;;;;;;;;6.67;6.67;;;;;12.62;71.60;102096.44;5078210;28;45437;-47
2023/09/24 07:24:10;;;;;;;;;13.33;9.33;;;;;12.77;71.34;102101.47;5078267;28;46768;-43
2023/09/24 07:26:35;;;;;;;;;9.00;7.67;;;;;12.84;70.54;102100.00;5078294;28;45374;-44
2023/09/24 07:29:00;;;;;;;;;12.67;6.00;;;;;12.88;70.68;102104.97;5077907;28;45395;-42
2023/09/24 07:31:26;;;;;;;;;11.00;7.00;;;;;12.89;70.66;102090.66;5078381;28;45270;-43
2023/09/24 07:33:53;;;;;;;;;8.33;8.00;;;;;13.04;70.19;102099.19;5078095;28;45220;-46
2023/09/24 07:36:18;;;;;;;;;13.00;9.33;;;;;13.13;70.24;102093.06;5077669;28;45571;-43
2023/09/24 07:38:44;;;;;;;;;7.67;7.00;;;;;13.20;69.54;102096.91;5059677;28;45398;-40
2023/09/24 07:41:10;;;;;;;;;13.33;8.33;;;;;13.26;69.41;102094.72;5078238;28;45458;-44
2023/09/24 07:43:42;;;;;;;;;9.00;7.33;;;;;13.33;69.22;102099.41;5077833;28;46464;-43
2023/09/24 07:46:14;;;;;;;;;14.00;8.00;;;;;13.43;68.94;102102.13;5077650;28;45478;-41
2023/09/24 07:48:43;;;;;;;;;7.00;7.00;;;;;13.48;68.61;102097.22;5078185;28;45180;-39
2023/09/24 07:51:09;;;;;;;;;8.33;7.33;;;;;13.52;68.41;102100.47;5078155;28;45386;-41
2023/09/24 07:53:37;;;;;;;;;8.00;6.67;;;;;13.45;68.43;102078.81;5076989;28;45331;-43
2023/09/24 07:56:07;;;;;;;;;9.67;7.33;;;;;13.64;68.35;102094.91;5077700;28;45520;-41
2023/09/24 07:58:33;;;;;;;;;12.00;9.00;;;;;13.75;67.86;102103.84;5077980;28;45438;-41
2023/09/24 08:01:03;;;;;;;;;11.33;7.00;;;;;13.82;67.71;102105.84;5077879;28;45413;-40
2023/09/24 08:03:29;;;;;;;;;5.00;4.33;;;;;13.93;67.42;102108.41;5077655;28;46964;-41
2023/09/24 08:05:54;;;;;;;;;9.33;8.00;;;;;14.04;67.52;102107.47;5077760;28;45182;-42
2023/09/24 08:08:20;;;;;;;;;7.67;7.00;;;;;14.01;66.58;102085.50;5077821;28;45352;-40
2023/09/24 08:10:45;;;;;;;;;7.33;6.67;;;;;14.20;66.20;102102.47;5077732;28;45700;-41
2023/09/24 08:13:11;;;;;;;;;9.00;5.00;;;;;14.31;65.64;102114.03;5077588;28;46037;-45
2023/09/24 08:15:37;;;;;;;;;3.33;3.00;;;;;14.38;64.96;102104.47;5077684;28;45630;-43
2023/09/24 08:18:08;;;;;;;;;5.00;5.00;;;;;14.51;65.34;102112.25;5077635;28;45338;-47
2023/09/24 08:20:34;;;;;;;;;6.00;6.00;;;;;14.93;64.80;102105.66;5077649;28;45217;-49
2023/09/24 08:23:00;;;;;;;;;10.67;5.00;;;;;16.58;61.06;102110.41;5077223;28;46038;-46
2023/09/24 08:25:26;;;;;;;;;9.00;5.00;;;;;18.26;57.07;102099.44;5077362;28;45253;-46
2023/09/24 08:27:51;;;;;;;;;6.00;4.67;;;;;19.83;53.43;102095.53;5077685;28;45237;-44
2023/09/24 08:30:19;;;;;;;;;6.00;6.00;;;;;20.97;50.96;102072.34;5077098;28;45293;-49
2023/09/24 08:32:45;;;;;;;;;5.50;5.00;;;;;22.08;47.71;102090.44;5077447;28;46375;-46
2023/09/24 08:35:10;;;;;;;;;8.00;5.00;;;;;22.91;46.70;102086.34;5077037;27;45380;-43
2023/09/24 08:37:35;;;;;;;;;5.25;5.00;;;;;23.42;44.40;102087.97;5077327;28;45371;-48
2023/09/24 08:40:03;;;;;;;;;3.50;3.50;;;;;23.79;42.44;102089.47;5076946;28;45382;-44
2023/09/24 08:42:31;;;;;;;;;6.50;6.50;;;;;24.06;41.60;102101.31;5077877;28;46067;-47
2023/09/24 08:45:09;;;;;;;;;5.40;4.60;;;;;24.49;41.69;102094.78;5077751;28;45362;-43
2023/09/24 08:47:35;;;;;;;;;5.00;3.60;;;;;24.79;39.00;102089.78;5077892;28;45418;-43
2023/09/24 08:50:03;;;;;;;;;7.25;5.00;;;;;24.82;40.22;102086.66;5077649;28;45390;-45
2023/09/24 08:52:33;;;;;;;;;4.00;4.00;;;;;24.86;39.74;102068.84;5076914;28;47535;-46
2023/09/24 08:54:59;;;;;;;;;6.60;4.40;;;;;25.10;38.70;102089.19;5077743;28;45415;-45
2023/09/24 08:57:24;;;;;;;;;7.00;5.00;;;;;24.94;38.90;102063.19;5077314;28;45400;-45
2023/09/24 08:59:50;;;;;;;;;4.75;4.75;;;;;24.86;39.70;102074.28;5077003;28;45357;-42
2023/09/24 09:02:16;;;;;;;;;7.80;4.00;;;;;24.73;39.82;102074.28;5076643;28;45725;-42
2023/09/24 09:04:48;;;;;;;;;3.00;3.00;;;;;24.30;39.64;102069.16;5076722;28;45388;-45
2023/09/24 09:07:15;;;;;;;;;4.20;4.20;;;;;24.33;39.50;102066.03;5076821;28;45348;-42
2023/09/24 09:09:41;;;;;;;;;4.40;3.20;;;;;24.49;39.48;102067.56;5076832;28;45379;-44
2023/09/24 09:12:18;;;;;;;;;8.20;4.80;;;;;24.49;39.45;102062.97;5058426;28;47326;-44
2023/09/24 09:14:43;;;;;;;;;7.20;7.20;;;;;24.60;39.54;102061.50;5076417;28;45339;-42
2023/09/24 09:17:08;;;;;;;;;6.50;4.00;;;;;24.73;41.40;102063.38;5076227;28;45315;-41
2023/09/24 09:19:48;;;;;;;;;6.25;4.00;;;;;24.79;39.96;102047.09;5076885;28;45370;-40
2023/09/24 09:22:23;;;;;;;;;5.00;3.40;;;;;25.00;38.58;102061.53;5076294;28;46215;-40
2023/09/24 09:25:02;;;;;;;;;3.40;3.40;;;;;25.12;39.65;102060.72;5076028;28;45389;-46
2023/09/24 09:27:32;;;;;;;;;2.20;2.20;;;;;25.53;39.05;102056.00;5075236;28;45363;-46
2023/09/24 09:30:16;;;;;;;;;3.60;2.00;;;;;26.03;39.07;102054.34;5076262;28;45476;-42
2023/09/24 09:32:45;;;;;;;;;7.40;5.80;;;;;26.21;36.62;102040.00;5075980;28;45373;-45
2023/09/24 09:35:11;;;;;;;;;6.80;6.80;;;;;26.51;36.89;102042.16;5075702;28;45635;-43
2023/09/24 09:37:38;;;;;;;;;5.60;5.60;;;;;26.77;36.21;102038.38;5076016;28;45519;-41
2023/09/24 09:40:06;;;;;;;;;8.40;5.00;;;;;27.18;35.64;102039.69;5076242;28;45193;-42
2023/09/24 09:42:35;;;;;;;;;3.80;3.60;;;;;27.47;35.03;102046.31;5075902;28;46378;-44
2023/09/24 09:45:04;;;;;;;;;2.60;2.60;;;;;27.54;34.03;102023.31;5075819;28;45388;-41
2023/09/24 09:47:34;;;;;;;;;5.20;2.60;;;;;27.76;33.92;102031.88;5075899;28;45319;-40
2023/09/24 09:50:00;;;;;;;;;3.00;1.40;;;;;27.77;35.61;102027.25;5076033;28;45353;-47
2023/09/24 09:52:34;;;;;;;;;3.20;2.00;;;;;27.81;34.51;102025.72;5078124;28;45366;-41
2023/09/24 09:55:04;;;;;;;;;2.80;2.80;;;;;28.19;33.49;102011.75;5079290;28;45484;-42
2023/09/24 09:57:34;;;;;;;;;3.60;2.40;;;;;28.38;33.07;102022.66;5078702;28;45265;-41
2023/09/24 10:00:05;;;;;;;;;2.00;2.00;;;;;28.39;32.84;102014.19;5079675;28;45296;-41
2023/09/24 10:02:32;;;;;;;;;6.80;3.20;;;;;28.52;32.33;102013.97;5079016;28;47225;-44
2023/09/24 10:04:59;;;;;;;;;2.40;2.40;;;;;29.04;32.96;102019.66;5079420;28;45298;-40
2023/09/24 10:07:25;;;;;;;;;4.40;3.60;;;;;29.12;31.90;102007.50;5079386;28;45355;-42
2023/09/24 10:09:50;;;;;;;;;3.00;3.00;;;;;29.66;30.98;102013.56;5079242;28;45649;-44
2023/09/24 10:12:36;;;;;;;;;6.00;3.00;;;;;30.08;31.00;102003.13;5079056;28;46173;-47
2023/09/24 10:15:24;;;;;;;;;4.20;4.20;;;;;30.59;30.47;102008.69;5078917;28;45417;-41
2023/09/24 10:18:11;;;;;;;;;6.00;3.00;;;;;30.68;29.63;102006.41;5079177;28;45243;-39
2023/09/24 10:20:48;;;;;;;;;5.20;3.40;;;;;30.89;29.53;102005.66;5079502;28;45876;-41
2023/09/24 10:23:28;;;;;;;;;3.00;3.00;;;;;31.02;28.73;101996.22;5078871;28;47236;-44
2023/09/24 10:25:56;;;;;;;;;5.20;4.20;;;;;31.21;27.91;101988.50;5079071;28;45363;-43
2023/09/24 10:28:42;;;;;;;;;3.00;3.00;;;;;31.30;26.99;101993.31;5079228;28;45313;-40
2023/09/24 10:31:09;;;;;;;;;4.00;4.00;;;;;31.69;27.03;101975.88;5079079;28;45486;-42
2023/09/24 10:33:52;;;;;;;;;6.20;3.60;;;;;31.96;28.70;101976.75;5078793;28;45502;-44
2023/09/24 10:36:28;;;;;;;;;1.60;1.60;;;;;31.88;25.43;101974.47;5078527;28;45327;-40
2023/09/24 10:39:00;;;;;;;;;1.00;1.00;;;;;32.16;26.98;101959.63;5079226;28;45475;-42
2023/09/24 10:41:25;;;;;;;;;2.20;1.80;;;;;32.49;25.14;101966.81;5079104;28;45319;-42
2023/09/24 10:44:22;;;;;;;;;2.50;2.50;;;;;32.79;23.58;101962.59;5078755;28;46520;-42
2023/09/24 10:46:47;;;;;;;;;3.80;3.40;;;;;33.46;25.31;101964.63;5078469;28;45401;-43
2023/09/24 10:49:21;;;;;;;;;4.25;4.25;;;;;34.53;24.79;101963.94;5078736;28;45277;-44
2023/09/24 10:51:56;;;;;;;;;5.60;4.80;;;;;35.67;23.62;101966.88;5078895;28;45635;-46
2023/09/24 10:54:21;;;;;;;;;4.00;3.00;;;;;36.47;21.54;101977.66;5078398;28;47054;-41
2023/09/24 10:56:47;;;;;;;;;3.50;3.50;;;;;37.01;19.91;101955.50;5078054;28;45237;-42
2023/09/24 10:59:14;;;;;;;;;3.25;3.00;;;;;37.94;19.96;101951.16;5078591;28;45449;-43
2023/09/24 11:01:40;;;;;;;;;1.40;0.80;;;;;39.05;19.23;101952.19;5078717;28;45402;-44
2023/09/24 11:04:08;;;;;;;;;2.00;2.00;;;;;39.23;17.87;101950.44;5077683;28;46907;-43
2023/09/24 11:06:33;;;;;;;;;3.80;2.80;;;;;39.62;17.04;101938.72;5078571;28;45766;-44
2023/09/24 11:09:15;;;;;;;;;5.00;2.00;;;;;39.84;17.40;101935.13;5077971;28;45415;-46
2023/09/24 11:11:42;;;;;;;;;3.60;3.00;;;;;40.19;16.88;101930.63;5078695;28;45437;-41
2023/09/24 11:14:25;;;;;;;;;5.40;2.60;;;;;40.06;16.88;101942.66;5060217;28;47064;-48
2023/09/24 11:16:51;;;;;;;;;3.00;3.00;;;;;40.50;16.45;101932.59;5078148;28;45635;-44
2023/09/24 11:19:41;;;;;;;;;1.80;1.80;;;;;40.55;16.64;101940.84;5078281;28;45382;-46
2023/09/24 11:22:26;;;;;;;;;3.40;3.20;;;;;40.78;16.16;101936.81;5060216;28;45301;-45